• Join FlightAware (Why Join?)
  • Login
  • US Flag 
12:12AM EDT


 

Airport Tracker/Info


-or-


 

Live Flight TrackerFlight Track Log ✈ FLG3764 ✈ 08-May-2013 ✈ KRIC - KDTW

Flight Track Log - Related Links

Times and Time Zones

All times are in EDT time to prevent confusion due to time zone crossing. See the FLG3764 flight status page for this flight to view local times or setup timezone preferences in your user account.

Time Position Orientation Groundspeed Altitude Reporting Facility
EDT Latitude Longitude Course Direction KTS MPH feet Rate Location/Type
04:45PM 37.4833 -77.3000 254° West 172 198 1,000  Level Potomac TRACON
04:46PM 37.4347 -77.3364 211° Southwest 183 211 3,500 1,800 Climbing Washington Center
04:47PM 37.4253 -77.4144 261° West 183 211 5,200 2,520 Climbing Washington Center
04:48PM 37.4008 -77.7411 254° West  Level FlightAware Approximate
04:48PM 37.4133 -77.5136 261° West 239 275 8,600  Level Washington Center
04:49PM 37.3754 -77.8526 254° West  Level FlightAware Approximate
04:50PM 37.3506 -77.9642 254° West  Level FlightAware Approximate
04:50PM 37.4209 -77.6540 254° West  Level FlightAware Approximate
04:50PM 37.3911 -77.7092 254° West 282 325 12,200  Level Washington Center
04:51PM 37.3789 -77.8186 262° West 306 352 13,600 1,560 Climbing Washington Center
04:52PM 37.3661 -77.9358 262° West 332 382 15,400 1,860 Climbing Washington Center
04:53PM 37.3450 -78.0475 257° West 339 390 17,300 1,980 Climbing Washington Center
04:54PM 37.3197 -78.1617 254° West 339 390 19,400 1,320 Climbing Washington Center
04:55PM 37.2964 -78.2731 255° West 339 390 20,000 600 Climbing Washington Center
04:56PM 37.3147 -78.3833 282° West 339 390 20,700 1,260 Climbing Washington Center
04:57PM 37.3667 -78.4819 304° West 332 382 22,600 1,560 Climbing Washington Center
04:58PM 37.4228 -78.5833 305° West 337 388 23,800 1,080 Climbing Washington Center
04:59PM 37.4867 -78.6958 306° West 358 412 24,800 780 Climbing Washington Center
05:00PM 37.5464 -78.7981 306° West 364 419 25,400 600 Climbing Washington Center
05:01PM 37.5933 -78.9178 296° West 369 425 26,000 600 Climbing Washington Center
05:02PM 37.6294 -79.0400 290° West 369 425 26,600 540 Climbing Washington Center
05:03PM 37.6636 -79.1517 291° West 379 436 27,200 600 Climbing Washington Center
05:04PM 37.7014 -79.2875 289° West 379 436 27,900 540 Climbing Washington Center
05:05PM 37.7394 -79.4022 293° West 379 436 28,300 540 Climbing Washington Center
05:06PM 37.7786 -79.5433 289° West 379 436 29,000 540 Climbing Washington Center
05:07PM 37.8142 -79.6689 290° West 379 436 29,500 420 Climbing Washington Center
05:08PM 37.8494 -79.7917 290° West 379 436 29,900 240 Climbing Washington Center
05:09PM 37.8828 -79.9069 290° West 379 436 30,000  Climbing Washington Center
05:10PM 37.9197 -80.0378 290° West 384 442 30,000  Level Washington Center
05:13PM 38.0122 -80.3569 290° West 392 451 30,000  Level Indianapolis Center
05:14PM 38.0475 -80.4836 290° West 391 450 30,000  Level Indianapolis Center
05:15PM 38.0878 -80.6261 290° West 394 453 30,000  Level Indianapolis Center
05:16PM 38.1244 -80.7575 290° West 395 455 30,000  Level Indianapolis Center
05:17PM 38.1611 -80.8872 290° West 392 451 30,000  Level Indianapolis Center
05:18PM 38.1983 -81.0192 290° West 394 453 30,000  Level Indianapolis Center
05:19PM 38.2331 -81.1492 289° West 390 449 30,000  Level Indianapolis Center
05:20PM 38.2717 -81.2792 291° West 389 448 30,000  Level Indianapolis Center
05:21PM 38.3636 -81.3419 332° Northwest 382 440 30,000  Level Indianapolis Center
05:22PM 38.4822 -81.3867 344° North 373 429 30,000  Level Indianapolis Center
05:23PM 38.5783 -81.4231 344° North 364 419 30,000  Level Indianapolis Center
05:24PM 38.6808 -81.4625 343° North 366 421 30,000  Level Indianapolis Center
05:25PM 38.7789 -81.5011 343° North 367 422 30,000  Level Indianapolis Center
05:26PM 38.8794 -81.5381 344° North 354 407 30,000  Level Indianapolis Center
05:27PM 38.9711 -81.5736 343° North 345 397 30,000  Level Indianapolis Center
05:28PM 39.0625 -81.6089 343° North 342 394 30,000  Level Indianapolis Center
05:29PM 39.1556 -81.6450 343° North 348 400 30,000  Level Indianapolis Center
05:30PM 39.2511 -81.6822 343° North 357 411 30,000  Level Indianapolis Center
05:31PM 39.3497 -81.7206 343° North 368 423 30,000  Level Indianapolis Center
05:32PM 39.4672 -81.7656 344° North 367 422 30,000  Level Indianapolis Center
05:33PM 39.5642 -81.8042 343° North 365 420 30,000  Level Indianapolis Center
05:34PM 39.6608 -81.8419 343° North 363 418 30,000  Level Indianapolis Center
05:35PM 39.7583 -81.8697 348° North 361 415 30,000 -180 Level Indianapolis Center
05:37PM 39.8731 -81.8900 353° North  Level FlightAware Approximate
05:37PM 39.9572 -81.9061 353° North 359 413 29,600  Level Indianapolis Center
05:38PM 40.0767 -81.9269 352° North 367 422 27,800 -1,620 Descending Indianapolis Center
05:39PM 40.1769 -81.9450 352° North 363 418 26,300 -900 Descending Indianapolis Center
05:40PM 40.2686 -81.9619 352° North 361 415 26,000 -180 Descending Indianapolis Center
05:42PM 40.3619 -81.9786 352° North 338 389 26,000  Level Indianapolis Center
05:42PM 40.4419 -81.9936 352° North 331 381 26,000  Level Cleveland Center
05:43PM 40.5419 -82.0092 353° North 358 412 26,000  Level Cleveland Center
05:44PM 40.6478 -82.0308 351° North 387 445 26,000  Level Cleveland Center
05:45PM 40.7561 -82.0494 353° North 385 443 26,000  Level Cleveland Center
05:46PM 40.8622 -82.0683 352° North 380 437 26,000  Level Cleveland Center
05:47PM 40.9661 -82.0900 351° North 380 437 26,000 -120 Level Cleveland Center
05:48PM 41.0572 -82.1361 339° North 386 444 25,800 -900 Descending Cleveland Center
05:49PM 41.1478 -82.2267 323° Northwest 386 444 24,300 -1,320 Descending Cleveland Center
05:50PM 41.2361 -82.3117 324° Northwest 393 452 23,200 -1,560 Descending Cleveland Center
05:51PM 41.3203 -82.3914 325° Northwest 378 435 21,200 -2,100 Descending Cleveland Center
05:52PM 41.4167 -82.4825 325° Northwest 384 442 19,000 -2,100 Descending Cleveland Center
05:53PM 41.5031 -82.5656 324° Northwest 389 448 17,100 -1,980 Descending Cleveland Center
05:54PM 41.5358 -82.5969 324° Northwest 384 442 16,200 -1,980 Descending Cleveland Center
05:54PM 41.5869 -82.6458 324° Northwest 377 434 15,100 -2,100 Descending Cleveland Center
05:55PM 41.6383 -82.6947 325° Northwest 357 411 13,700 -1,980 Descending Cleveland Center
05:55PM 41.6586 -82.7147 324° Northwest 368 423 13,200 -1,860 Descending Cleveland Center
05:56PM 41.7078 -82.7667 322° Northwest 347 399 12,000 -1,200 Descending Cleveland Center
05:56PM 41.7344 -82.7897 327° Northwest 357 411 12,000  Level Cleveland Center
05:57PM 41.7894 -82.8583 317° Northwest 342 394 12,000  Level Cleveland Center
05:57PM 41.8056 -82.8758 321° Northwest 346 398 12,000  Level Cleveland Center
05:58PM 41.8544 -82.9361 317° Northwest 342 394 12,000  Level Cleveland Center
05:58PM 41.8769 -82.9619 319° Northwest 346 398 12,000  Level Cleveland Center
05:59PM 41.9339 -83.0311 318° Northwest 354 407 12,000  Level Cleveland Center
05:59PM 41.9500 -83.0486 321° Northwest 346 398 12,000  Level Cleveland Center
06:00PM 42.0069 -83.1206 317° Northwest 350 403 12,000 -120 Level Cleveland Center
06:00PM 42.0211 -83.1350 323° Northwest 351 404 11,900 -300 Descending Cleveland Center
06:01PM 42.0658 -83.1900 318° Northwest 241 277 11,700 -420 Descending Cleveland Center
06:01PM 42.0719 -83.1986 314° West 310 357 11,500 -660 Descending Cleveland Center
06:02PM 42.1250 -83.2428 328° Northwest 230 265 11,000 -1,020 Descending Cleveland Center
06:03PM 42.1942 -83.2317 North 231 266 9,500 -1,440 Descending Cleveland Center
06:04PM 42.2472 -83.1861 32° Northeast 231 266 8,000 -1,140 Descending Cleveland Center
06:05PM 42.3025 -83.1381 33° Northeast 229 264 7,200 -1,140 Descending Cleveland Center
06:06PM 42.3567 -83.1458 354° North 224 258 5,800 -1,140 Descending Cleveland Center
06:07PM 42.3633 -83.2219 277° West 193 222 5,000 -900 Descending Cleveland Center
06:08PM 42.3228 -83.2622 216° Southwest 171 197 4,000 -1,260 Descending Cleveland Center
06:09PM 42.2931 -83.2808 205° Southwest 138 159 2,700 -1,620 Descending Cleveland Center